sensor_id;sensor_type;location;lat;lon;timestamp;P1;durP1;ratioP1;P2;durP2;ratioP2
16727;SDS011;8482;54.396;18.590;2023-04-06T04:58:22;6.90;;;2.20;;
16727;SDS011;8482;54.396;18.590;2023-04-06T05:00:47;5.30;;;2.10;;
16727;SDS011;8482;54.396;18.590;2023-04-06T05:03:18;6.80;;;2.53;;
16727;SDS011;8482;54.396;18.590;2023-04-06T05:05:48;6.90;;;2.87;;
16727;SDS011;8482;54.396;18.590;2023-04-06T05:08:14;5.10;;;2.30;;
16727;SDS011;8482;54.396;18.590;2023-04-06T05:10:41;6.27;;;2.73;;
16727;SDS011;8482;54.396;18.590;2023-04-06T05:13:08;6.73;;;2.70;;
16727;SDS011;8482;54.396;18.590;2023-04-06T05:15:34;7.50;;;2.73;;
16727;SDS011;8482;54.396;18.590;2023-04-06T05:18:02;9.23;;;3.30;;
16727;SDS011;8482;54.396;18.590;2023-04-06T05:20:32;6.60;;;3.00;;
16727;SDS011;8482;54.396;18.590;2023-04-06T05:22:59;8.63;;;3.40;;
16727;SDS011;8482;54.396;18.590;2023-04-06T05:25:25;10.13;;;3.43;;
16727;SDS011;8482;54.396;18.590;2023-04-06T05:27:52;7.17;;;3.17;;
16727;SDS011;8482;54.396;18.590;2023-04-06T05:30:18;6.40;;;3.27;;
16727;SDS011;8482;54.396;18.590;2023-04-06T05:32:44;7.83;;;3.80;;
16727;SDS011;8482;54.396;18.590;2023-04-06T05:35:10;9.90;;;4.67;;
16727;SDS011;8482;54.396;18.590;2023-04-06T05:37:37;14.47;;;6.17;;
16727;SDS011;8482;54.396;18.590;2023-04-06T05:40:04;16.80;;;6.77;;
16727;SDS011;8482;54.396;18.590;2023-04-06T05:42:37;12.30;;;6.17;;
16727;SDS011;8482;54.396;18.590;2023-04-06T05:45:08;11.30;;;5.83;;
16727;SDS011;8482;54.396;18.590;2023-04-06T05:47:36;11.80;;;5.30;;
16727;SDS011;8482;54.396;18.590;2023-04-06T05:50:02;11.80;;;5.13;;
16727;SDS011;8482;54.396;18.590;2023-04-06T05:52:28;10.83;;;4.67;;
16727;SDS011;8482;54.396;18.590;2023-04-06T05:54:54;11.27;;;5.13;;
16727;SDS011;8482;54.396;18.590;2023-04-06T05:57:20;12.80;;;5.00;;
16727;SDS011;8482;54.396;18.590;2023-04-06T05:59:47;12.67;;;5.17;;
16727;SDS011;8482;54.396;18.590;2023-04-06T06:02:12;9.67;;;4.27;;
16727;SDS011;8482;54.396;18.590;2023-04-06T06:04:38;9.20;;;3.70;;
16727;SDS011;8482;54.396;18.590;2023-04-06T06:07:04;9.67;;;3.33;;
16727;SDS011;8482;54.396;18.590;2023-04-06T06:09:30;8.47;;;3.70;;
16727;SDS011;8482;54.396;18.590;2023-04-06T06:11:56;8.27;;;2.90;;
16727;SDS011;8482;54.396;18.590;2023-04-06T06:14:22;7.30;;;3.17;;
16727;SDS011;8482;54.396;18.590;2023-04-06T06:16:48;9.97;;;3.57;;
16727;SDS011;8482;54.396;18.590;2023-04-06T06:19:14;7.20;;;3.07;;
16727;SDS011;8482;54.396;18.590;2023-04-06T06:21:39;10.00;;;3.70;;
16727;SDS011;8482;54.396;18.590;2023-04-06T06:24:06;11.23;;;4.97;;
16727;SDS011;8482;54.396;18.590;2023-04-06T06:26:32;8.67;;;3.53;;
16727;SDS011;8482;54.396;18.590;2023-04-06T06:29:00;10.33;;;4.03;;
16727;SDS011;8482;54.396;18.590;2023-04-06T06:31:26;9.63;;;4.03;;
16727;SDS011;8482;54.396;18.590;2023-04-06T06:33:52;7.87;;;3.43;;
16727;SDS011;8482;54.396;18.590;2023-04-06T06:36:17;7.00;;;2.73;;
16727;SDS011;8482;54.396;18.590;2023-04-06T06:38:44;9.03;;;3.10;;
16727;SDS011;8482;54.396;18.590;2023-04-06T06:41:10;6.03;;;2.87;;
16727;SDS011;8482;54.396;18.590;2023-04-06T06:43:36;8.57;;;2.67;;
16727;SDS011;8482;54.396;18.590;2023-04-06T06:46:02;6.73;;;2.97;;
16727;SDS011;8482;54.396;18.590;2023-04-06T06:48:29;7.77;;;3.20;;
16727;SDS011;8482;54.396;18.590;2023-04-06T06:50:55;8.83;;;3.90;;
16727;SDS011;8482;54.396;18.590;2023-04-06T06:53:22;8.47;;;3.73;;
16727;SDS011;8482;54.396;18.590;2023-04-06T06:55:49;8.67;;;3.63;;
16727;SDS011;8482;54.396;18.590;2023-04-06T06:58:17;7.67;;;3.53;;
16727;SDS011;8482;54.396;18.590;2023-04-06T07:00:44;10.00;;;3.83;;
16727;SDS011;8482;54.396;18.590;2023-04-06T07:03:10;7.07;;;2.40;;
16727;SDS011;8482;54.396;18.590;2023-04-06T07:05:36;6.50;;;2.53;;
16727;SDS011;8482;54.396;18.590;2023-04-06T07:08:02;6.90;;;2.43;;
16727;SDS011;8482;54.396;18.590;2023-04-06T07:10:28;8.40;;;2.80;;
16727;SDS011;8482;54.396;18.590;2023-04-06T07:12:55;6.33;;;2.60;;
16727;SDS011;8482;54.396;18.590;2023-04-06T07:15:21;7.63;;;3.20;;
16727;SDS011;8482;54.396;18.590;2023-04-06T07:17:47;8.20;;;2.73;;
16727;SDS011;8482;54.396;18.590;2023-04-06T07:20:13;5.77;;;2.70;;
16727;SDS011;8482;54.396;18.590;2023-04-06T07:22:40;6.40;;;2.60;;
16727;SDS011;8482;54.396;18.590;2023-04-06T07:25:09;8.47;;;2.90;;
16727;SDS011;8482;54.396;18.590;2023-04-06T07:27:38;6.07;;;2.67;;
16727;SDS011;8482;54.396;18.590;2023-04-06T07:30:04;8.60;;;2.97;;
16727;SDS011;8482;54.396;18.590;2023-04-06T07:32:30;9.10;;;2.97;;
16727;SDS011;8482;54.396;18.590;2023-04-06T07:34:56;7.87;;;3.23;;
16727;SDS011;8482;54.396;18.590;2023-04-06T07:37:23;8.20;;;2.90;;
16727;SDS011;8482;54.396;18.590;2023-04-06T07:39:49;7.07;;;2.87;;
16727;SDS011;8482;54.396;18.590;2023-04-06T07:42:15;7.47;;;2.90;;
16727;SDS011;8482;54.396;18.590;2023-04-06T07:44:40;7.33;;;3.17;;
16727;SDS011;8482;54.396;18.590;2023-04-06T07:47:06;6.77;;;2.90;;
16727;SDS011;8482;54.396;18.590;2023-04-06T07:49:32;7.10;;;3.03;;
16727;SDS011;8482;54.396;18.590;2023-04-06T07:51:58;7.73;;;3.30;;
16727;SDS011;8482;54.396;18.590;2023-04-06T07:54:24;6.57;;;2.83;;
16727;SDS011;8482;54.396;18.590;2023-04-06T07:56:50;6.63;;;3.00;;
16727;SDS011;8482;54.396;18.590;2023-04-06T07:59:16;6.60;;;2.80;;
16727;SDS011;8482;54.396;18.590;2023-04-06T08:01:41;8.17;;;3.47;;
16727;SDS011;8482;54.396;18.590;2023-04-06T08:04:07;9.53;;;3.47;;
16727;SDS011;8482;54.396;18.590;2023-04-06T08:06:33;6.50;;;3.00;;
16727;SDS011;8482;54.396;18.590;2023-04-06T08:09:01;6.63;;;2.93;;
16727;SDS011;8482;54.396;18.590;2023-04-06T08:11:28;6.07;;;2.40;;
16727;SDS011;8482;54.396;18.590;2023-04-06T08:13:54;7.37;;;3.10;;
16727;SDS011;8482;54.396;18.590;2023-04-06T08:16:22;4.23;;;1.87;;
16727;SDS011;8482;54.396;18.590;2023-04-06T08:18:48;4.83;;;2.13;;
16727;SDS011;8482;54.396;18.590;2023-04-06T08:21:14;6.50;;;2.00;;
16727;SDS011;8482;54.396;18.590;2023-04-06T08:23:40;3.60;;;1.60;;
16727;SDS011;8482;54.396;18.590;2023-04-06T08:26:06;4.70;;;1.70;;
16727;SDS011;8482;54.396;18.590;2023-04-06T08:28:32;3.63;;;1.60;;
16727;SDS011;8482;54.396;18.590;2023-04-06T08:30:59;2.53;;;1.47;;
16727;SDS011;8482;54.396;18.590;2023-04-06T08:33:35;2.97;;;1.30;;
16727;SDS011;8482;54.396;18.590;2023-04-06T08:36:08;2.83;;;1.65;;
16727;SDS011;8482;54.396;18.590;2023-04-06T08:38:36;4.43;;;1.80;;
16727;SDS011;8482;54.396;18.590;2023-04-06T08:41:09;3.17;;;1.60;;
16727;SDS011;8482;54.396;18.590;2023-04-06T08:43:38;3.20;;;1.67;;
16727;SDS011;8482;54.396;18.590;2023-04-06T08:46:08;3.50;;;1.50;;
16727;SDS011;8482;54.396;18.590;2023-04-06T08:48:36;3.03;;;1.63;;
16727;SDS011;8482;54.396;18.590;2023-04-06T08:51:05;2.50;;;1.47;;
16727;SDS011;8482;54.396;18.590;2023-04-06T08:53:31;2.20;;;1.17;;
16727;SDS011;8482;54.396;18.590;2023-04-06T08:55:58;2.27;;;0.97;;
16727;SDS011;8482;54.396;18.590;2023-04-06T08:58:25;4.23;;;1.40;;
16727;SDS011;8482;54.396;18.590;2023-04-06T09:00:58;2.57;;;1.20;;
16727;SDS011;8482;54.396;18.590;2023-04-06T09:03:26;3.30;;;1.30;;
16727;SDS011;8482;54.396;18.590;2023-04-06T09:05:54;4.10;;;1.43;;
16727;SDS011;8482;54.396;18.590;2023-04-06T09:08:20;2.15;;;1.50;;
16727;SDS011;8482;54.396;18.590;2023-04-06T09:10:46;2.90;;;1.20;;
16727;SDS011;8482;54.396;18.590;2023-04-06T09:13:14;4.00;;;1.20;;
16727;SDS011;8482;54.396;18.590;2023-04-06T09:15:40;1.93;;;1.00;;
16727;SDS011;8482;54.396;18.590;2023-04-06T09:18:06;3.30;;;1.10;;
16727;SDS011;8482;54.396;18.590;2023-04-06T09:20:33;3.15;;;1.23;;
16727;SDS011;8482;54.396;18.590;2023-04-06T09:22:59;2.55;;;1.42;;
16727;SDS011;8482;54.396;18.590;2023-04-06T09:25:42;2.07;;;1.10;;
16727;SDS011;8482;54.396;18.590;2023-04-06T09:28:08;4.50;;;1.25;;
16727;SDS011;8482;54.396;18.590;2023-04-06T09:30:34;2.13;;;1.10;;
16727;SDS011;8482;54.396;18.590;2023-04-06T09:33:00;3.63;;;1.10;;
16727;SDS011;8482;54.396;18.590;2023-04-06T09:35:26;2.00;;;1.00;;
16727;SDS011;8482;54.396;18.590;2023-04-06T09:37:54;2.37;;;1.10;;
16727;SDS011;8482;54.396;18.590;2023-04-06T09:40:20;1.30;;;1.00;;
16727;SDS011;8482;54.396;18.590;2023-04-06T09:42:47;2.43;;;1.00;;
16727;SDS011;8482;54.396;18.590;2023-04-06T09:45:17;2.10;;;0.90;;
16727;SDS011;8482;54.396;18.590;2023-04-06T09:47:43;1.10;;;0.60;;
16727;SDS011;8482;54.396;18.590;2023-04-06T09:50:14;2.30;;;1.10;;
16727;SDS011;8482;54.396;18.590;2023-04-06T09:52:50;2.13;;;0.80;;
16727;SDS011;8482;54.396;18.590;2023-04-06T09:55:30;1.50;;;0.70;;
16727;SDS011;8482;54.396;18.590;2023-04-06T09:58:05;1.90;;;0.80;;
16727;SDS011;8482;54.396;18.590;2023-04-06T10:00:51;1.40;;;0.83;;
16727;SDS011;8482;54.396;18.590;2023-04-06T10:03:47;3.93;;;1.00;;
16727;SDS011;8482;54.396;18.590;2023-04-06T10:06:21;2.77;;;0.87;;
16727;SDS011;8482;54.396;18.590;2023-04-06T10:08:52;2.27;;;1.00;;
16727;SDS011;8482;54.396;18.590;2023-04-06T10:11:21;1.90;;;0.90;;
16727;SDS011;8482;54.396;18.590;2023-04-06T10:13:48;2.53;;;0.90;;
16727;SDS011;8482;54.396;18.590;2023-04-06T10:16:15;1.70;;;0.80;;
16727;SDS011;8482;54.396;18.590;2023-04-06T10:18:44;2.23;;;0.77;;
16727;SDS011;8482;54.396;18.590;2023-04-06T10:21:36;2.50;;;0.80;;
16727;SDS011;8482;54.396;18.590;2023-04-06T10:34:15;0.93;;;0.50;;
16727;SDS011;8482;54.396;18.590;2023-04-06T10:36:40;2.73;;;0.70;;
16727;SDS011;8482;54.396;18.590;2023-04-06T10:39:06;1.17;;;0.70;;
16727;SDS011;8482;54.396;18.590;2023-04-06T10:44:00;2.83;;;0.80;;
16727;SDS011;8482;54.396;18.590;2023-04-06T10:46:30;2.05;;;0.65;;
16727;SDS011;8482;54.396;18.590;2023-04-06T10:48:58;1.70;;;0.80;;
16727;SDS011;8482;54.396;18.590;2023-04-06T10:51:39;1.50;;;0.50;;
16727;SDS011;8482;54.396;18.590;2023-04-06T10:54:06;1.40;;;0.70;;
16727;SDS011;8482;54.396;18.590;2023-04-06T10:56:32;2.03;;;0.60;;
16727;SDS011;8482;54.396;18.590;2023-04-06T10:59:03;1.20;;;0.75;;
16727;SDS011;8482;54.396;18.590;2023-04-06T11:01:31;3.45;;;0.90;;
16727;SDS011;8482;54.396;18.590;2023-04-06T11:03:57;1.55;;;0.90;;
16727;SDS011;8482;54.396;18.590;2023-04-06T11:06:28;5.10;;;0.90;;
16727;SDS011;8482;54.396;18.590;2023-04-06T11:08:56;0.98;;;0.60;;
16727;SDS011;8482;54.396;18.590;2023-04-06T11:11:23;0.70;;;0.60;;
16727;SDS011;8482;54.396;18.590;2023-04-06T11:13:52;1.23;;;0.60;;
16727;SDS011;8482;54.396;18.590;2023-04-06T11:18:50;3.72;;;1.02;;
16727;SDS011;8482;54.396;18.590;2023-04-06T11:21:37;1.30;;;0.60;;
16727;SDS011;8482;54.396;18.590;2023-04-06T11:26:43;2.10;;;1.02;;
16727;SDS011;8482;54.396;18.590;2023-04-06T11:29:15;1.20;;;0.80;;
16727;SDS011;8482;54.396;18.590;2023-04-06T11:34:23;1.65;;;0.70;;
16727;SDS011;8482;54.396;18.590;2023-04-06T11:36:54;1.38;;;0.70;;
16727;SDS011;8482;54.396;18.590;2023-04-06T11:39:27;1.15;;;0.55;;
16727;SDS011;8482;54.396;18.590;2023-04-06T11:41:56;1.67;;;0.70;;
16727;SDS011;8482;54.396;18.590;2023-04-06T11:47:11;1.40;;;0.73;;
16727;SDS011;8482;54.396;18.590;2023-04-06T11:49:38;1.40;;;0.70;;
16727;SDS011;8482;54.396;18.590;2023-04-06T11:52:17;2.28;;;1.02;;
16727;SDS011;8482;54.396;18.590;2023-04-06T11:54:49;1.30;;;0.85;;
16727;SDS011;8482;54.396;18.590;2023-04-06T11:57:17;3.13;;;1.33;;
16727;SDS011;8482;54.396;18.590;2023-04-06T11:59:48;1.75;;;1.00;;
16727;SDS011;8482;54.396;18.590;2023-04-06T12:02:14;2.85;;;1.00;;
16727;SDS011;8482;54.396;18.590;2023-04-06T12:04:41;2.58;;;1.00;;
16727;SDS011;8482;54.396;18.590;2023-04-06T12:07:06;1.23;;;0.90;;
16727;SDS011;8482;54.396;18.590;2023-04-06T12:09:32;2.78;;;1.00;;
16727;SDS011;8482;54.396;18.590;2023-04-06T12:11:59;2.33;;;1.10;;
16727;SDS011;8482;54.396;18.590;2023-04-06T12:14:25;3.17;;;1.08;;
16727;SDS011;8482;54.396;18.590;2023-04-06T12:16:51;1.73;;;0.88;;
16727;SDS011;8482;54.396;18.590;2023-04-06T12:19:17;1.58;;;0.90;;
16727;SDS011;8482;54.396;18.590;2023-04-06T12:21:42;1.35;;;0.75;;
16727;SDS011;8482;54.396;18.590;2023-04-06T12:24:09;1.23;;;0.60;;
16727;SDS011;8482;54.396;18.590;2023-04-06T12:26:35;1.48;;;0.90;;
16727;SDS011;8482;54.396;18.590;2023-04-06T12:29:02;1.75;;;1.38;;
16727;SDS011;8482;54.396;18.590;2023-04-06T12:31:38;1.27;;;0.80;;
16727;SDS011;8482;54.396;18.590;2023-04-06T12:34:06;2.10;;;1.00;;
16727;SDS011;8482;54.396;18.590;2023-04-06T12:36:32;1.55;;;0.68;;
16727;SDS011;8482;54.396;18.590;2023-04-06T12:38:58;1.42;;;0.75;;
16727;SDS011;8482;54.396;18.590;2023-04-06T12:41:26;2.05;;;0.70;;
16727;SDS011;8482;54.396;18.590;2023-04-06T12:43:53;0.82;;;0.60;;
16727;SDS011;8482;54.396;18.590;2023-04-06T12:46:19;1.35;;;0.60;;
16727;SDS011;8482;54.396;18.590;2023-04-06T12:48:45;1.58;;;0.55;;
16727;SDS011;8482;54.396;18.590;2023-04-06T12:51:11;2.38;;;1.00;;
16727;SDS011;8482;54.396;18.590;2023-04-06T12:53:37;1.30;;;0.63;;
16727;SDS011;8482;54.396;18.590;2023-04-06T12:56:10;2.88;;;0.82;;
16727;SDS011;8482;54.396;18.590;2023-04-06T12:58:45;2.67;;;0.73;;
16727;SDS011;8482;54.396;18.590;2023-04-06T13:01:12;0.93;;;0.50;;
16727;SDS011;8482;54.396;18.590;2023-04-06T13:03:39;2.65;;;1.00;;
16727;SDS011;8482;54.396;18.590;2023-04-06T13:06:06;1.35;;;0.70;;
16727;SDS011;8482;54.396;18.590;2023-04-06T13:08:36;1.33;;;0.98;;
16727;SDS011;8482;54.396;18.590;2023-04-06T13:11:04;1.05;;;0.57;;
16727;SDS011;8482;54.396;18.590;2023-04-06T13:13:33;1.20;;;0.70;;
16727;SDS011;8482;54.396;18.590;2023-04-06T13:16:01;1.70;;;0.80;;
16727;SDS011;8482;54.396;18.590;2023-04-06T13:18:30;2.83;;;0.65;;
16727;SDS011;8482;54.396;18.590;2023-04-06T13:20:57;1.30;;;0.65;;
16727;SDS011;8482;54.396;18.590;2023-04-06T13:23:24;2.17;;;0.90;;
16727;SDS011;8482;54.396;18.590;2023-04-06T13:26:03;1.67;;;0.63;;
16727;SDS011;8482;54.396;18.590;2023-04-06T13:28:31;0.50;;;0.50;;
16727;SDS011;8482;54.396;18.590;2023-04-06T13:30:59;0.68;;;0.60;;
16727;SDS011;8482;54.396;18.590;2023-04-06T13:33:26;2.20;;;1.00;;
16727;SDS011;8482;54.396;18.590;2023-04-06T13:35:53;1.45;;;0.85;;
16727;SDS011;8482;54.396;18.590;2023-04-06T13:38:19;1.63;;;0.50;;
16727;SDS011;8482;54.396;18.590;2023-04-06T13:40:45;1.38;;;0.60;;
16727;SDS011;8482;54.396;18.590;2023-04-06T13:43:11;1.40;;;0.73;;
16727;SDS011;8482;54.396;18.590;2023-04-06T13:45:37;1.23;;;0.82;;
16727;SDS011;8482;54.396;18.590;2023-04-06T13:48:04;1.17;;;0.80;;
16727;SDS011;8482;54.396;18.590;2023-04-06T13:50:30;1.35;;;0.90;;
16727;SDS011;8482;54.396;18.590;2023-04-06T13:52:57;1.55;;;0.80;;
16727;SDS011;8482;54.396;18.590;2023-04-06T13:55:23;2.15;;;0.93;;
16727;SDS011;8482;54.396;18.590;2023-04-06T13:57:49;0.85;;;0.57;;
16727;SDS011;8482;54.396;18.590;2023-04-06T14:00:16;1.10;;;0.57;;
16727;SDS011;8482;54.396;18.590;2023-04-06T14:02:42;3.28;;;0.82;;
16727;SDS011;8482;54.396;18.590;2023-04-06T14:05:09;1.58;;;0.82;;
16727;SDS011;8482;54.396;18.590;2023-04-06T14:07:35;1.48;;;0.75;;
16727;SDS011;8482;54.396;18.590;2023-04-06T14:10:01;0.88;;;0.57;;
16727;SDS011;8482;54.396;18.590;2023-04-06T14:12:28;0.95;;;0.60;;
16727;SDS011;8482;54.396;18.590;2023-04-06T14:14:54;1.13;;;0.70;;
16727;SDS011;8482;54.396;18.590;2023-04-06T14:17:20;1.98;;;0.90;;
16727;SDS011;8482;54.396;18.590;2023-04-06T14:19:45;1.17;;;0.60;;
16727;SDS011;8482;54.396;18.590;2023-04-06T14:22:12;0.57;;;0.57;;
16727;SDS011;8482;54.396;18.590;2023-04-06T14:24:38;1.95;;;0.70;;
16727;SDS011;8482;54.396;18.590;2023-04-06T14:27:04;1.65;;;0.75;;
16727;SDS011;8482;54.396;18.590;2023-04-06T14:29:30;1.67;;;0.77;;
16727;SDS011;8482;54.396;18.590;2023-04-06T14:31:56;1.58;;;0.70;;
16727;SDS011;8482;54.396;18.590;2023-04-06T14:34:27;1.08;;;0.75;;
16727;SDS011;8482;54.396;18.590;2023-04-06T14:36:54;1.65;;;0.75;;
16727;SDS011;8482;54.396;18.590;2023-04-06T14:39:20;2.15;;;1.02;;
16727;SDS011;8482;54.396;18.590;2023-04-06T14:41:46;2.35;;;0.98;;
16727;SDS011;8482;54.396;18.590;2023-04-06T14:44:12;2.03;;;1.13;;
16727;SDS011;8482;54.396;18.590;2023-04-06T14:46:40;0.93;;;0.73;;
16727;SDS011;8482;54.396;18.590;2023-04-06T14:49:06;1.17;;;0.88;;
16727;SDS011;8482;54.396;18.590;2023-04-06T14:51:33;1.85;;;0.80;;
16727;SDS011;8482;54.396;18.590;2023-04-06T14:54:00;3.05;;;1.10;;
16727;SDS011;8482;54.396;18.590;2023-04-06T14:56:30;1.42;;;0.70;;
16727;SDS011;8482;54.396;18.590;2023-04-06T14:58:59;1.30;;;0.55;;
16727;SDS011;8482;54.396;18.590;2023-04-06T15:01:28;1.00;;;0.70;;
16727;SDS011;8482;54.396;18.590;2023-04-06T15:03:54;1.65;;;0.70;;
16727;SDS011;8482;54.396;18.590;2023-04-06T15:06:20;1.27;;;0.73;;
16727;SDS011;8482;54.396;18.590;2023-04-06T15:08:48;1.80;;;0.70;;
16727;SDS011;8482;54.396;18.590;2023-04-06T15:11:14;1.23;;;0.67;;
16727;SDS011;8482;54.396;18.590;2023-04-06T15:13:41;1.60;;;0.87;;
16727;SDS011;8482;54.396;18.590;2023-04-06T15:16:07;1.47;;;0.70;;
16727;SDS011;8482;54.396;18.590;2023-04-06T15:18:39;2.43;;;1.00;;
16727;SDS011;8482;54.396;18.590;2023-04-06T15:21:05;2.07;;;1.00;;
16727;SDS011;8482;54.396;18.590;2023-04-06T15:23:32;2.03;;;1.10;;
16727;SDS011;8482;54.396;18.590;2023-04-06T15:25:59;1.57;;;0.80;;
16727;SDS011;8482;54.396;18.590;2023-04-06T15:28:26;2.03;;;0.97;;
16727;SDS011;8482;54.396;18.590;2023-04-06T15:30:53;1.00;;;0.80;;
16727;SDS011;8482;54.396;18.590;2023-04-06T15:33:20;2.30;;;0.90;;
16727;SDS011;8482;54.396;18.590;2023-04-06T15:35:47;2.23;;;0.90;;
16727;SDS011;8482;54.396;18.590;2023-04-06T15:38:13;1.87;;;0.90;;
16727;SDS011;8482;54.396;18.590;2023-04-06T15:40:44;1.80;;;0.90;;
16727;SDS011;8482;54.396;18.590;2023-04-06T15:43:12;3.00;;;1.00;;
16727;SDS011;8482;54.396;18.590;2023-04-06T15:45:39;2.03;;;1.03;;
16727;SDS011;8482;54.396;18.590;2023-04-06T15:48:06;2.20;;;0.90;;
16727;SDS011;8482;54.396;18.590;2023-04-06T15:50:32;2.80;;;0.90;;
16727;SDS011;8482;54.396;18.590;2023-04-06T15:53:00;1.27;;;0.90;;
16727;SDS011;8482;54.396;18.590;2023-04-06T15:55:26;2.97;;;1.20;;
16727;SDS011;8482;54.396;18.590;2023-04-06T15:57:51;2.63;;;0.90;;
16727;SDS011;8482;54.396;18.590;2023-04-06T16:00:17;2.83;;;0.80;;
16727;SDS011;8482;54.396;18.590;2023-04-06T16:02:44;2.23;;;0.80;;
16727;SDS011;8482;54.396;18.590;2023-04-06T16:05:10;1.40;;;1.00;;
16727;SDS011;8482;54.396;18.590;2023-04-06T16:07:36;2.70;;;0.90;;
16727;SDS011;8482;54.396;18.590;2023-04-06T16:10:02;2.30;;;0.90;;
16727;SDS011;8482;54.396;18.590;2023-04-06T16:12:29;1.43;;;0.80;;
16727;SDS011;8482;54.396;18.590;2023-04-06T16:14:57;1.97;;;1.00;;
16727;SDS011;8482;54.396;18.590;2023-04-06T16:17:23;1.80;;;1.10;;
16727;SDS011;8482;54.396;18.590;2023-04-06T16:19:49;1.93;;;1.37;;
16727;SDS011;8482;54.396;18.590;2023-04-06T16:22:15;3.30;;;1.47;;
16727;SDS011;8482;54.396;18.590;2023-04-06T16:24:41;3.13;;;1.47;;
16727;SDS011;8482;54.396;18.590;2023-04-06T16:27:07;3.27;;;1.37;;
16727;SDS011;8482;54.396;18.590;2023-04-06T16:29:33;2.67;;;1.20;;
16727;SDS011;8482;54.396;18.590;2023-04-06T16:32:01;4.13;;;1.33;;
16727;SDS011;8482;54.396;18.590;2023-04-06T16:34:31;3.83;;;1.27;;
16727;SDS011;8482;54.396;18.590;2023-04-06T16:36:58;2.73;;;1.00;;
16727;SDS011;8482;54.396;18.590;2023-04-06T16:39:25;2.47;;;1.37;;
16727;SDS011;8482;54.396;18.590;2023-04-06T16:41:51;2.70;;;1.40;;
16727;SDS011;8482;54.396;18.590;2023-04-06T16:44:17;3.27;;;1.30;;
16727;SDS011;8482;54.396;18.590;2023-04-06T16:46:43;4.97;;;1.97;;
16727;SDS011;8482;54.396;18.590;2023-04-06T16:49:11;3.43;;;1.60;;
16727;SDS011;8482;54.396;18.590;2023-04-06T16:51:38;3.53;;;1.50;;
16727;SDS011;8482;54.396;18.590;2023-04-06T16:54:05;4.07;;;1.30;;
16727;SDS011;8482;54.396;18.590;2023-04-06T16:56:31;2.87;;;1.50;;
16727;SDS011;8482;54.396;18.590;2023-04-06T16:58:57;3.17;;;1.37;;
16727;SDS011;8482;54.396;18.590;2023-04-06T17:01:24;3.93;;;1.33;;
16727;SDS011;8482;54.396;18.590;2023-04-06T17:03:52;3.10;;;1.70;;
16727;SDS011;8482;54.396;18.590;2023-04-06T17:06:19;3.50;;;1.70;;
16727;SDS011;8482;54.396;18.590;2023-04-06T17:08:46;4.20;;;1.73;;
16727;SDS011;8482;54.396;18.590;2023-04-06T17:11:13;4.83;;;1.97;;
16727;SDS011;8482;54.396;18.590;2023-04-06T17:13:40;3.73;;;1.87;;
16727;SDS011;8482;54.396;18.590;2023-04-06T17:16:07;4.50;;;2.00;;
16727;SDS011;8482;54.396;18.590;2023-04-06T17:18:35;5.40;;;2.00;;
16727;SDS011;8482;54.396;18.590;2023-04-06T17:21:05;4.67;;;2.00;;
16727;SDS011;8482;54.396;18.590;2023-04-06T17:23:38;4.37;;;1.90;;
16727;SDS011;8482;54.396;18.590;2023-04-06T17:26:06;6.00;;;2.20;;
16727;SDS011;8482;54.396;18.590;2023-04-06T17:28:32;6.10;;;1.83;;
16727;SDS011;8482;54.396;18.590;2023-04-06T17:30:59;3.87;;;1.90;;
16727;SDS011;8482;54.396;18.590;2023-04-06T17:33:26;3.80;;;2.00;;
16727;SDS011;8482;54.396;18.590;2023-04-06T17:35:52;5.23;;;2.20;;
16727;SDS011;8482;54.396;18.590;2023-04-06T17:38:19;4.07;;;1.90;;
16727;SDS011;8482;54.396;18.590;2023-04-06T17:40:45;4.53;;;2.23;;
16727;SDS011;8482;54.396;18.590;2023-04-06T17:43:11;5.37;;;2.17;;
16727;SDS011;8482;54.396;18.590;2023-04-06T17:45:37;5.47;;;1.90;;
16727;SDS011;8482;54.396;18.590;2023-04-06T17:48:03;4.77;;;1.77;;
16727;SDS011;8482;54.396;18.590;2023-04-06T17:50:29;6.23;;;2.10;;
16727;SDS011;8482;54.396;18.590;2023-04-06T17:52:55;3.80;;;1.70;;
16727;SDS011;8482;54.396;18.590;2023-04-06T17:55:21;6.40;;;1.70;;
16727;SDS011;8482;54.396;18.590;2023-04-06T17:57:47;3.70;;;1.70;;
16727;SDS011;8482;54.396;18.590;2023-04-06T18:00:14;4.37;;;1.83;;
16727;SDS011;8482;54.396;18.590;2023-04-06T18:02:43;3.10;;;1.77;;
16727;SDS011;8482;54.396;18.590;2023-04-06T18:05:10;3.10;;;1.60;;
16727;SDS011;8482;54.396;18.590;2023-04-06T18:07:37;4.07;;;1.60;;
16727;SDS011;8482;54.396;18.590;2023-04-06T18:10:03;2.20;;;1.53;;
16727;SDS011;8482;54.396;18.590;2023-04-06T18:12:29;4.37;;;1.80;;
16727;SDS011;8482;54.396;18.590;2023-04-06T18:14:56;3.30;;;1.60;;
16727;SDS011;8482;54.396;18.590;2023-04-06T18:17:22;4.80;;;2.00;;
16727;SDS011;8482;54.396;18.590;2023-04-06T18:19:48;3.77;;;1.73;;
16727;SDS011;8482;54.396;18.590;2023-04-06T18:22:14;2.57;;;1.33;;
16727;SDS011;8482;54.396;18.590;2023-04-06T18:24:40;5.17;;;1.80;;
16727;SDS011;8482;54.396;18.590;2023-04-06T18:27:06;5.90;;;1.67;;
16727;SDS011;8482;54.396;18.590;2023-04-06T18:29:33;3.97;;;1.60;;
16727;SDS011;8482;54.396;18.590;2023-04-06T18:32:00;3.30;;;1.70;;
16727;SDS011;8482;54.396;18.590;2023-04-06T18:34:25;3.37;;;1.47;;
16727;SDS011;8482;54.396;18.590;2023-04-06T18:36:51;3.23;;;1.40;;
16727;SDS011;8482;54.396;18.590;2023-04-06T18:39:17;2.70;;;1.53;;
16727;SDS011;8482;54.396;18.590;2023-04-06T18:41:43;3.03;;;1.63;;
16727;SDS011;8482;54.396;18.590;2023-04-06T18:44:09;3.87;;;1.60;;
16727;SDS011;8482;54.396;18.590;2023-04-06T18:46:35;4.43;;;1.57;;
16727;SDS011;8482;54.396;18.590;2023-04-06T18:49:03;4.07;;;1.57;;
16727;SDS011;8482;54.396;18.590;2023-04-06T18:51:29;3.27;;;1.30;;
16727;SDS011;8482;54.396;18.590;2023-04-06T18:53:56;2.77;;;1.50;;
16727;SDS011;8482;54.396;18.590;2023-04-06T18:56:22;2.63;;;1.27;;
16727;SDS011;8482;54.396;18.590;2023-04-06T18:58:48;3.23;;;1.67;;
16727;SDS011;8482;54.396;18.590;2023-04-06T19:01:24;5.97;;;1.77;;
16727;SDS011;8482;54.396;18.590;2023-04-06T19:03:54;2.90;;;1.70;;
16727;SDS011;8482;54.396;18.590;2023-04-06T19:06:23;3.40;;;1.83;;
16727;SDS011;8482;54.396;18.590;2023-04-06T19:08:51;5.37;;;1.40;;
16727;SDS011;8482;54.396;18.590;2023-04-06T19:11:17;3.10;;;1.60;;
16727;SDS011;8482;54.396;18.590;2023-04-06T19:13:46;2.60;;;1.40;;
16727;SDS011;8482;54.396;18.590;2023-04-06T19:16:16;4.23;;;1.40;;
16727;SDS011;8482;54.396;18.590;2023-04-06T19:18:42;3.43;;;1.57;;
16727;SDS011;8482;54.396;18.590;2023-04-06T19:21:19;3.33;;;1.40;;
16727;SDS011;8482;54.396;18.590;2023-04-06T19:23:49;3.93;;;1.57;;
16727;SDS011;8482;54.396;18.590;2023-04-06T19:26:18;2.87;;;1.57;;
16727;SDS011;8482;54.396;18.590;2023-04-06T19:28:51;2.63;;;1.40;;
16727;SDS011;8482;54.396;18.590;2023-04-06T19:31:17;2.60;;;1.13;;
16727;SDS011;8482;54.396;18.590;2023-04-06T19:33:43;2.13;;;1.10;;
16727;SDS011;8482;54.396;18.590;2023-04-06T19:36:11;2.80;;;1.30;;
16727;SDS011;8482;54.396;18.590;2023-04-06T19:38:37;2.90;;;1.20;;
16727;SDS011;8482;54.396;18.590;2023-04-06T19:41:04;4.00;;;1.20;;
16727;SDS011;8482;54.396;18.590;2023-04-06T19:43:30;4.37;;;1.40;;
16727;SDS011;8482;54.396;18.590;2023-04-06T19:45:56;3.47;;;1.20;;
16727;SDS011;8482;54.396;18.590;2023-04-06T19:48:22;2.77;;;1.23;;
16727;SDS011;8482;54.396;18.590;2023-04-06T19:50:50;2.33;;;1.27;;
16727;SDS011;8482;54.396;18.590;2023-04-06T19:53:18;2.57;;;1.47;;
16727;SDS011;8482;54.396;18.590;2023-04-06T19:55:45;4.33;;;1.60;;
16727;SDS011;8482;54.396;18.590;2023-04-06T19:58:11;3.70;;;1.40;;
16727;SDS011;8482;54.396;18.590;2023-04-06T20:00:37;4.00;;;1.50;;
16727;SDS011;8482;54.396;18.590;2023-04-06T20:03:03;4.37;;;1.57;;
16727;SDS011;8482;54.396;18.590;2023-04-06T20:05:29;3.63;;;1.93;;
16727;SDS011;8482;54.396;18.590;2023-04-06T20:07:55;3.43;;;1.40;;
16727;SDS011;8482;54.396;18.590;2023-04-06T20:10:21;4.87;;;1.80;;